createdAt,value
2023-01-11T00:01:57.188Z,3.10
2023-01-11T00:04:30.124Z,3.10
2023-01-11T00:06:57.571Z,3.10
2023-01-11T00:09:24.382Z,3.10
2023-01-11T00:11:51.241Z,3.00
2023-01-11T00:14:18.273Z,3.00
2023-01-11T00:16:45.081Z,3.00
2023-01-11T00:19:12.010Z,3.00
2023-01-11T00:21:38.909Z,3.00
2023-01-11T00:24:06.076Z,3.00
2023-01-11T00:26:32.820Z,3.00
2023-01-11T00:28:59.630Z,3.00
2023-01-11T00:31:26.447Z,3.10
2023-01-11T00:33:53.420Z,3.10
2023-01-11T00:36:20.223Z,3.10
2023-01-11T00:38:51.338Z,3.10
2023-01-11T00:41:37.434Z,3.10
2023-01-11T00:44:23.467Z,3.10
2023-01-11T00:47:09.311Z,3.10
2023-01-11T00:49:36.476Z,3.10
2023-01-11T00:52:08.731Z,3.10
2023-01-11T00:54:36.855Z,3.10
2023-01-11T00:57:04.098Z,3.10
2023-01-11T00:59:30.859Z,3.20
2023-01-11T01:01:57.648Z,3.10
2023-01-11T01:04:24.437Z,3.10
2023-01-11T01:06:51.329Z,3.10
2023-01-11T01:09:18.143Z,3.10
2023-01-11T01:11:44.889Z,3.10
2023-01-11T01:14:30.657Z,3.20
2023-01-11T01:17:03.463Z,3.20
2023-01-11T01:19:31.159Z,3.20
2023-01-11T01:21:59.427Z,3.20
2023-01-11T01:24:30.899Z,3.20
2023-01-11T01:26:58.674Z,3.20
2023-01-11T01:29:26.009Z,3.20
2023-01-11T01:31:52.839Z,3.20
2023-01-11T01:34:19.631Z,3.30
2023-01-11T01:36:46.415Z,3.30
2023-01-11T01:39:13.229Z,3.30
2023-01-11T01:41:40.274Z,3.30
2023-01-11T01:44:44.379Z,3.30
2023-01-11T01:47:12.058Z,3.30
2023-01-11T01:49:39.819Z,3.30
2023-01-11T01:52:07.098Z,3.30
2023-01-11T01:54:41.990Z,3.30
2023-01-11T01:57:18.498Z,3.30
2023-01-11T01:59:46.005Z,3.30
2023-01-11T02:02:12.833Z,3.30
2023-01-11T02:04:44.748Z,3.30
2023-01-11T02:07:26.458Z,3.30
2023-01-11T02:10:35.500Z,3.30
2023-01-11T02:13:06.305Z,3.30
2023-01-11T02:15:33.175Z,3.30
2023-01-11T02:17:59.930Z,3.30
2023-01-11T02:20:38.709Z,3.30
2023-01-11T02:23:17.554Z,3.40
2023-01-11T02:26:02.577Z,3.40
2023-01-11T02:28:49.628Z,3.40
2023-01-11T02:31:31.661Z,3.40
2023-01-11T02:34:34.909Z,3.40
2023-01-11T02:37:17.651Z,3.40
2023-01-11T02:40:18.447Z,3.40
2023-01-11T02:43:22.041Z,3.40
2023-01-11T02:46:01.338Z,3.40
2023-01-11T02:48:50.349Z,3.40
2023-01-11T02:51:25.041Z,3.40
2023-01-11T02:53:59.746Z,3.40
2023-01-11T02:56:29.695Z,3.40
2023-01-11T02:58:58.001Z,3.40
2023-01-11T03:01:25.560Z,3.40
2023-01-11T03:03:53.603Z,3.40
2023-01-11T03:06:34.785Z,3.40
2023-01-11T03:09:26.118Z,3.40
2023-01-11T03:12:23.551Z,3.50
2023-01-11T03:15:09.162Z,3.50
2023-01-11T03:17:56.120Z,3.50
2023-01-11T03:20:36.136Z,3.40
2023-01-11T03:23:08.726Z,3.50
2023-01-11T03:26:03.077Z,3.50
2023-01-11T03:28:37.073Z,3.50
2023-01-11T03:31:20.057Z,3.50
2023-01-11T03:34:19.731Z,3.50
2023-01-11T03:36:55.216Z,3.50
2023-01-11T03:39:29.312Z,3.50
2023-01-11T03:42:00.009Z,3.60
2023-01-11T03:44:29.556Z,3.60
2023-01-11T03:47:01.076Z,3.60
2023-01-11T03:49:33.898Z,3.70
2023-01-11T03:52:03.968Z,3.70
2023-01-11T03:54:33.658Z,3.80
2023-01-11T03:57:22.468Z,3.80
2023-01-11T03:59:50.558Z,3.80
2023-01-11T04:02:24.464Z,3.80
2023-01-11T04:04:51.606Z,3.80
2023-01-11T04:07:18.844Z,3.80
2023-01-11T04:09:46.178Z,3.90
2023-01-11T04:12:19.491Z,3.90
2023-01-11T04:14:47.291Z,3.90
2023-01-11T04:17:14.073Z,3.90
2023-01-11T04:19:40.842Z,3.90
2023-01-11T04:22:07.591Z,4.00
2023-01-11T04:24:34.356Z,4.00
2023-01-11T04:27:01.263Z,4.00
2023-01-11T04:29:28.025Z,4.00
2023-01-11T04:31:55.500Z,4.10
2023-01-11T04:34:22.260Z,4.00
2023-01-11T04:36:49.157Z,4.10
2023-01-11T04:39:15.925Z,4.10
2023-01-11T04:42:01.250Z,4.10
2023-01-11T04:44:28.035Z,4.20
2023-01-11T04:46:54.774Z,4.10
2023-01-11T04:49:21.567Z,4.10
2023-01-11T04:51:48.376Z,4.10
2023-01-11T04:54:16.196Z,4.20
2023-01-11T04:56:42.980Z,4.20
2023-01-11T04:59:09.729Z,4.30
2023-01-11T05:01:36.459Z,4.30
2023-01-11T05:04:03.269Z,4.30
2023-01-11T05:06:30.121Z,4.30
2023-01-11T05:08:56.981Z,4.30
2023-01-11T05:11:23.735Z,4.30
2023-01-11T05:13:50.963Z,4.40
2023-01-11T05:16:23.596Z,4.40
2023-01-11T05:18:55.487Z,4.40
2023-01-11T05:21:24.973Z,4.30
2023-01-11T05:23:52.279Z,4.40
2023-01-11T05:26:23.128Z,4.40
2023-01-11T05:28:51.563Z,4.40
2023-01-11T05:31:18.977Z,4.40
2023-01-11T05:33:45.993Z,4.40
2023-01-11T05:36:14.675Z,4.40
2023-01-11T05:38:41.518Z,4.40
2023-01-11T05:41:10.366Z,4.30
2023-01-11T05:43:56.592Z,4.30
2023-01-11T05:46:24.353Z,4.30
2023-01-11T05:48:51.412Z,4.30
2023-01-11T05:51:18.209Z,4.30
2023-01-11T05:53:45.159Z,4.40
2023-01-11T05:56:12.102Z,4.30
2023-01-11T05:58:38.939Z,4.30
2023-01-11T06:01:06.189Z,4.40
2023-01-11T06:03:33.135Z,4.40
2023-01-11T06:06:00.356Z,4.50
2023-01-11T06:08:27.150Z,4.40
2023-01-11T06:10:55.576Z,4.50
2023-01-11T06:13:27.032Z,4.50
2023-01-11T06:15:55.387Z,4.60
2023-01-11T06:18:22.283Z,4.70
2023-01-11T06:20:50.515Z,4.70
2023-01-11T06:23:17.940Z,4.70
2023-01-11T06:25:45.525Z,4.70
2023-01-11T06:28:13.008Z,4.80
2023-01-11T06:30:40.515Z,4.80
2023-01-11T06:33:07.447Z,4.80
2023-01-11T06:35:39.342Z,4.80
2023-01-11T06:38:11.533Z,4.80
2023-01-11T06:40:40.082Z,4.80
2023-01-11T06:43:07.564Z,4.80
2023-01-11T06:45:34.721Z,4.80
2023-01-11T06:48:01.478Z,4.80
2023-01-11T06:50:28.234Z,4.80
2023-01-11T06:52:59.995Z,4.80
2023-01-11T06:55:28.638Z,4.80
2023-01-11T06:57:55.399Z,4.80
2023-01-11T07:00:22.738Z,4.80
2023-01-11T07:02:50.042Z,4.80
2023-01-11T07:05:19.165Z,4.80
2023-01-11T07:07:46.560Z,4.70
2023-01-11T07:10:16.100Z,4.80
2023-01-11T07:12:43.341Z,4.70
2023-01-11T07:15:11.025Z,4.70
2023-01-11T07:17:38.404Z,4.70
2023-01-11T07:20:06.802Z,4.80
2023-01-11T07:22:35.370Z,4.70
2023-01-11T07:25:02.900Z,4.80
2023-01-11T07:27:29.682Z,4.80
2023-01-11T07:29:59.714Z,4.80
2023-01-11T07:32:27.668Z,4.80
2023-01-11T07:34:55.429Z,4.80
2023-01-11T07:37:28.006Z,4.80
2023-01-11T07:39:56.127Z,4.80
2023-01-11T07:42:41.312Z,4.90
2023-01-11T07:45:08.656Z,4.90
2023-01-11T07:47:35.462Z,5.00
2023-01-11T07:50:02.280Z,5.00
2023-01-11T07:52:29.030Z,5.10
2023-01-11T07:55:02.129Z,5.20
2023-01-11T07:57:29.928Z,5.20
2023-01-11T07:59:56.753Z,5.20
2023-01-11T08:02:23.592Z,5.30
2023-01-11T08:04:50.534Z,5.30
2023-01-11T08:07:17.276Z,5.30
2023-01-11T08:09:44.043Z,5.40
2023-01-11T08:12:29.595Z,5.30
2023-01-11T08:14:56.382Z,5.30
2023-01-11T08:17:23.188Z,5.40
2023-01-11T08:19:50.129Z,5.40
2023-01-11T08:22:19.930Z,5.50
2023-01-11T08:24:46.928Z,5.50
2023-01-11T08:27:13.913Z,5.50
2023-01-11T08:29:43.994Z,5.60
2023-01-11T08:32:12.211Z,5.60
2023-01-11T08:34:39.500Z,5.70
2023-01-11T08:37:06.552Z,5.70
2023-01-11T08:39:33.424Z,5.70
2023-01-11T08:42:01.090Z,5.80
2023-01-11T08:44:35.243Z,5.80
2023-01-11T08:47:03.656Z,5.90
2023-01-11T08:49:30.735Z,6.00
2023-01-11T08:51:57.577Z,6.00
2023-01-11T08:54:25.121Z,6.00
2023-01-11T08:56:51.945Z,6.10
2023-01-11T08:59:19.985Z,6.10
2023-01-11T09:01:47.427Z,6.10
2023-01-11T09:04:24.125Z,6.20
2023-01-11T09:06:52.954Z,6.20
2023-01-11T09:09:19.884Z,6.20
2023-01-11T09:11:56.969Z,6.30
2023-01-11T09:14:26.107Z,6.30
2023-01-11T09:16:53.907Z,6.30
2023-01-11T09:19:21.365Z,6.40
2023-01-11T09:21:48.249Z,6.50
2023-01-11T09:24:15.399Z,6.50
2023-01-11T09:26:43.542Z,6.60
2023-01-11T09:29:11.532Z,6.70
2023-01-11T09:31:38.427Z,6.70
2023-01-11T09:34:06.915Z,6.80
2023-01-11T09:36:35.975Z,6.80
2023-01-11T09:39:07.623Z,6.90
2023-01-11T09:42:01.123Z,6.90
2023-01-11T09:44:30.049Z,6.90
2023-01-11T09:47:19.500Z,6.90
2023-01-11T09:49:56.060Z,6.90
2023-01-11T09:52:40.975Z,6.90
2023-01-11T09:55:15.221Z,6.90
2023-01-11T09:57:53.685Z,6.90
2023-01-11T10:00:41.841Z,6.90
2023-01-11T10:03:39.487Z,7.00
2023-01-11T10:06:29.775Z,7.00
2023-01-11T10:18:27.730Z,7.20
2023-01-11T10:18:45.463Z,7.30
2023-01-11T10:21:18.219Z,7.30
2023-01-11T10:24:20.849Z,7.40
2023-01-11T10:26:50.568Z,7.50
2023-01-11T10:29:38.838Z,7.50
2023-01-11T10:32:34.544Z,7.50
2023-01-11T10:35:25.899Z,7.50
2023-01-11T10:38:11.885Z,7.50
2023-01-11T10:41:04.661Z,7.50
2023-01-11T10:43:41.552Z,7.50
2023-01-11T10:46:13.684Z,7.50
2023-01-11T10:48:43.224Z,7.60
2023-01-11T10:51:38.659Z,7.50
2023-01-11T10:54:22.067Z,7.60
2023-01-11T10:57:11.315Z,7.60
2023-01-11T11:00:13.520Z,7.70
2023-01-11T11:03:05.435Z,7.70
2023-01-11T11:05:39.493Z,7.70
2023-01-11T11:08:28.233Z,7.80
2023-01-11T11:11:26.071Z,7.80
2023-01-11T11:14:04.254Z,7.90
2023-01-11T11:16:57.674Z,7.90
2023-01-11T11:19:29.167Z,8.00
2023-01-11T11:21:56.191Z,8.00
2023-01-11T11:24:33.624Z,8.00
2023-01-11T11:27:10.538Z,8.00
2023-01-11T11:29:50.261Z,8.10
2023-01-11T11:32:24.639Z,8.10
2023-01-11T11:34:52.545Z,8.10
2023-01-11T11:37:25.349Z,8.10
2023-01-11T11:39:53.816Z,8.10
2023-01-11T11:42:22.198Z,8.10
2023-01-11T11:45:11.479Z,8.10
2023-01-11T11:47:38.727Z,8.10
2023-01-11T11:50:41.985Z,8.10
2023-01-11T11:53:07.540Z,8.20
2023-01-11T11:55:35.269Z,8.20
2023-01-11T11:58:08.595Z,8.20
2023-01-11T12:00:43.729Z,8.20
2023-01-11T12:03:16.141Z,8.20
2023-01-11T12:06:12.521Z,8.20
2023-01-11T12:08:42.646Z,8.30
2023-01-11T12:11:20.326Z,8.30
2023-01-11T12:14:10.690Z,8.30
2023-01-11T12:16:40.816Z,8.30
2023-01-11T12:19:29.101Z,8.30
2023-01-11T12:22:22.010Z,8.30
2023-01-11T12:25:08.375Z,8.30
2023-01-11T12:27:47.219Z,8.40
2023-01-11T12:30:25.527Z,8.40
2023-01-11T12:33:29.695Z,8.40
2023-01-11T12:36:03.174Z,8.40
2023-01-11T12:38:35.886Z,8.50
2023-01-11T12:41:43.664Z,8.50
2023-01-11T12:44:49.041Z,8.50
2023-01-11T12:47:46.898Z,8.60
2023-01-11T12:50:18.408Z,8.60
2023-01-11T12:53:03.343Z,8.60
2023-01-11T12:55:55.651Z,8.60
2023-01-11T12:58:41.350Z,8.60
2023-01-11T13:01:27.955Z,8.60
2023-01-11T13:04:16.487Z,8.60
2023-01-11T13:06:53.775Z,8.60
2023-01-11T13:09:45.108Z,8.60
2023-01-11T13:12:17.978Z,8.60
2023-01-11T13:15:03.577Z,8.60
2023-01-11T13:17:50.635Z,8.60
2023-01-11T13:20:34.224Z,8.60
2023-01-11T13:23:17.283Z,8.60
2023-01-11T13:25:48.253Z,8.60
2023-01-11T13:28:28.817Z,8.60
2023-01-11T13:30:57.062Z,8.50
2023-01-11T13:33:27.318Z,8.50
2023-01-11T13:36:07.510Z,8.50
2023-01-11T13:38:47.253Z,8.50
2023-01-11T13:41:32.818Z,8.40
2023-01-11T13:44:12.842Z,8.40
2023-01-11T13:46:48.845Z,8.40
2023-01-11T13:49:41.061Z,8.40
2023-01-11T13:52:14.706Z,8.40
2023-01-11T13:55:14.373Z,8.30
2023-01-11T13:58:05.942Z,8.30
2023-01-11T14:00:41.764Z,8.30
2023-01-11T14:03:36.640Z,8.30
2023-01-11T14:06:17.828Z,8.30
2023-01-11T14:09:06.287Z,8.30
2023-01-11T14:11:39.422Z,8.20
2023-01-11T14:14:42.598Z,8.20
2023-01-11T14:17:27.250Z,8.20
2023-01-11T14:20:06.349Z,8.20
2023-01-11T14:22:52.467Z,8.20
2023-01-11T14:25:49.175Z,8.20
2023-01-11T14:28:29.595Z,8.20
2023-01-11T14:30:56.368Z,8.10
2023-01-11T14:33:35.200Z,8.10
2023-01-11T14:36:33.876Z,8.10
2023-01-11T14:39:41.787Z,8.10
2023-01-11T14:42:35.138Z,8.10
2023-01-11T14:45:05.113Z,8.10
2023-01-11T14:47:54.970Z,8.00
2023-01-11T14:50:53.506Z,8.00
2023-01-11T14:53:26.509Z,7.80
2023-01-11T14:55:53.277Z,7.70
2023-01-11T14:58:26.923Z,7.60
2023-01-11T15:00:56.717Z,7.60
2023-01-11T15:03:23.397Z,7.50
2023-01-11T15:05:50.123Z,7.50
2023-01-11T15:08:26.600Z,7.40
2023-01-11T15:10:58.015Z,7.40
2023-01-11T15:13:28.988Z,7.40
2023-01-11T15:16:35.737Z,7.30
2023-01-11T15:19:07.776Z,7.30
2023-01-11T15:21:50.271Z,7.30
2023-01-11T15:24:45.515Z,7.30
2023-01-11T15:27:27.696Z,7.30
2023-01-11T15:29:57.333Z,7.30
2023-01-11T15:32:32.203Z,7.30
2023-01-11T15:35:26.890Z,7.20
2023-01-11T15:38:26.895Z,7.20
2023-01-11T15:40:55.194Z,7.30
2023-01-11T15:43:46.971Z,7.20
2023-01-11T15:46:54.813Z,7.20
2023-01-11T15:49:57.229Z,7.20
2023-01-11T15:52:32.905Z,7.20
2023-01-11T15:55:36.759Z,7.20
2023-01-11T15:58:23.885Z,7.20
2023-01-11T16:01:38.293Z,7.10
2023-01-11T16:04:23.079Z,7.10
2023-01-11T16:07:02.988Z,7.10
2023-01-11T16:10:07.999Z,7.10
2023-01-11T16:13:07.838Z,7.10
2023-01-11T16:16:20.881Z,7.10
2023-01-11T16:18:55.498Z,7.00
2023-01-11T16:21:38.379Z,7.10
2023-01-11T16:24:13.171Z,7.10
2023-01-11T16:26:41.186Z,7.00
2023-01-11T16:29:17.097Z,7.00
2023-01-11T16:32:04.798Z,7.00
2023-01-11T16:34:41.162Z,7.00
2023-01-11T16:37:25.880Z,7.00
2023-01-11T16:39:58.317Z,7.00
2023-01-11T16:42:27.382Z,7.10
2023-01-11T16:45:07.968Z,7.00
2023-01-11T16:47:34.854Z,7.00
2023-01-11T16:50:10.560Z,7.00
2023-01-11T16:52:42.565Z,7.00
2023-01-11T16:55:23.356Z,7.00
2023-01-11T16:57:57.574Z,7.00
2023-01-11T17:00:32.537Z,7.00
2023-01-11T17:03:05.665Z,6.90
2023-01-11T17:05:33.102Z,6.90
2023-01-11T17:07:59.819Z,6.90
2023-01-11T17:10:29.189Z,6.90
2023-01-11T17:13:46.379Z,6.90
2023-01-11T17:16:16.759Z,6.90
2023-01-11T17:18:44.747Z,7.00
2023-01-11T17:21:23.628Z,7.00
2023-01-11T17:23:52.986Z,6.90
2023-01-11T17:26:25.944Z,6.90
2023-01-11T17:28:57.377Z,6.90
2023-01-11T17:31:28.251Z,6.90
2023-01-11T17:34:08.371Z,6.90
2023-01-11T17:36:36.254Z,6.90
2023-01-11T17:39:05.488Z,7.00
2023-01-11T17:41:51.827Z,6.90
2023-01-11T17:44:40.243Z,6.90
2023-01-11T17:47:10.927Z,6.90
2023-01-11T17:49:38.788Z,6.90
2023-01-11T17:52:22.845Z,6.80
2023-01-11T17:55:20.110Z,6.70
2023-01-11T17:58:19.758Z,6.70
2023-01-11T18:01:10.146Z,6.70
2023-01-11T18:03:59.707Z,6.60
2023-01-11T18:06:35.221Z,6.50
2023-01-11T18:09:05.399Z,6.50
2023-01-11T18:11:35.716Z,6.50
2023-01-11T18:14:06.450Z,6.40
2023-01-11T18:16:33.723Z,6.40
2023-01-11T18:19:01.169Z,6.30
2023-01-11T18:21:50.064Z,6.40
2023-01-11T18:24:23.873Z,6.40
2023-01-11T18:27:06.791Z,6.40
2023-01-11T18:29:36.661Z,6.30
2023-01-11T18:32:05.376Z,6.30
2023-01-11T18:34:32.520Z,6.30
2023-01-11T18:37:00.280Z,6.30
2023-01-11T18:39:27.170Z,6.30
2023-01-11T18:42:07.400Z,6.30
2023-01-11T18:44:39.693Z,6.30
2023-01-11T18:47:18.524Z,6.30
2023-01-11T18:49:45.962Z,6.40
2023-01-11T18:52:13.660Z,6.30
2023-01-11T18:54:42.117Z,6.30
2023-01-11T18:57:09.352Z,6.30
2023-01-11T18:59:36.238Z,6.20
2023-01-11T19:02:28.740Z,6.20
2023-01-11T19:04:57.010Z,6.10
2023-01-11T19:07:25.421Z,6.10
2023-01-11T19:09:54.721Z,6.00
2023-01-11T19:12:22.079Z,6.00
2023-01-11T19:14:48.868Z,6.00
2023-01-11T19:17:16.005Z,5.90
2023-01-11T19:19:43.307Z,5.80
2023-01-11T19:22:11.363Z,5.80
2023-01-11T19:24:39.449Z,5.70
2023-01-11T19:27:06.784Z,5.70
2023-01-11T19:29:33.745Z,5.70
2023-01-11T19:32:00.477Z,5.70
2023-01-11T19:34:27.280Z,5.70
2023-01-11T19:36:54.100Z,5.70
2023-01-11T19:39:20.949Z,5.60
2023-01-11T19:42:16.979Z,5.60
2023-01-11T19:44:43.808Z,5.60
2023-01-11T19:47:13.470Z,5.60
2023-01-11T19:49:41.378Z,5.60
2023-01-11T19:52:12.931Z,5.60
2023-01-11T19:54:43.874Z,5.70
2023-01-11T19:57:12.090Z,5.60
2023-01-11T19:59:38.936Z,5.70
2023-01-11T20:02:06.786Z,5.60
2023-01-11T20:04:33.860Z,5.70
2023-01-11T20:07:00.639Z,5.60
2023-01-11T20:09:27.997Z,5.70
2023-01-11T20:11:55.526Z,5.70
2023-01-11T20:14:22.391Z,5.60
2023-01-11T20:16:49.149Z,5.70
2023-01-11T20:19:15.873Z,5.60
2023-01-11T20:21:42.644Z,5.60
2023-01-11T20:24:13.189Z,5.60
2023-01-11T20:26:40.926Z,5.70
2023-01-11T20:29:07.958Z,5.60
2023-01-11T20:31:35.631Z,5.70
2023-01-11T20:34:14.168Z,5.60
2023-01-11T20:36:42.546Z,5.60
2023-01-11T20:39:10.912Z,5.70
2023-01-11T20:41:52.714Z,5.70
2023-01-11T20:44:32.050Z,5.70
2023-01-11T20:46:59.443Z,5.60
2023-01-11T20:49:29.239Z,5.60
2023-01-11T20:51:56.625Z,5.70
2023-01-11T20:54:23.503Z,5.60
2023-01-11T20:56:50.281Z,5.50
2023-01-11T20:59:19.848Z,5.50
2023-01-11T21:01:48.054Z,5.40
2023-01-11T21:04:15.955Z,5.30
2023-01-11T21:06:44.771Z,5.30
2023-01-11T21:09:14.687Z,5.20
2023-01-11T21:11:42.182Z,5.20
2023-01-11T21:14:11.958Z,5.10
2023-01-11T21:16:44.061Z,5.10
2023-01-11T21:19:13.045Z,5.00
2023-01-11T21:21:40.444Z,5.00
2023-01-11T21:24:08.552Z,4.90
2023-01-11T21:26:35.888Z,4.90
2023-01-11T21:29:04.690Z,4.80
2023-01-11T21:31:34.500Z,4.80
2023-01-11T21:34:02.215Z,4.80
2023-01-11T21:36:30.747Z,4.70
2023-01-11T21:38:58.581Z,4.70
2023-01-11T21:41:46.436Z,4.70
2023-01-11T21:44:14.238Z,4.70
2023-01-11T21:46:41.727Z,4.60
2023-01-11T21:49:09.171Z,4.60
2023-01-11T21:51:36.131Z,4.50
2023-01-11T21:54:08.250Z,4.50
2023-01-11T21:56:35.380Z,4.50
2023-01-11T21:59:02.282Z,4.50
2023-01-11T22:01:29.433Z,4.50
2023-01-11T22:03:56.504Z,4.50
2023-01-11T22:06:23.642Z,4.60
2023-01-11T22:08:50.627Z,4.60
2023-01-11T22:11:18.468Z,4.60
2023-01-11T22:13:45.657Z,4.60
2023-01-11T22:16:17.427Z,4.60
2023-01-11T22:18:45.238Z,4.70
2023-01-11T22:21:17.884Z,4.70
2023-01-11T22:23:46.622Z,4.80
2023-01-11T22:26:17.966Z,4.80
2023-01-11T22:29:05.427Z,4.80
2023-01-11T22:31:33.819Z,4.80
2023-01-11T22:34:01.408Z,4.90
2023-01-11T22:36:28.739Z,4.90
2023-01-11T22:38:56.058Z,4.90
2023-01-11T22:41:24.497Z,4.80
2023-01-11T22:43:51.974Z,4.80
2023-01-11T22:46:21.080Z,4.70
2023-01-11T22:48:48.763Z,4.70
2023-01-11T22:51:17.503Z,4.70
2023-01-11T22:53:46.213Z,4.60
2023-01-11T22:56:19.518Z,4.60
2023-01-11T22:58:47.505Z,4.50
2023-01-11T23:01:20.949Z,4.50
2023-01-11T23:03:48.354Z,4.40
2023-01-11T23:06:24.113Z,4.40
2023-01-11T23:08:51.033Z,4.30
2023-01-11T23:11:39.878Z,4.30
2023-01-11T23:14:09.612Z,4.20
2023-01-11T23:16:37.189Z,4.20
2023-01-11T23:19:05.789Z,4.10
2023-01-11T23:21:32.847Z,4.10
2023-01-11T23:24:02.945Z,4.00
2023-01-11T23:26:30.040Z,4.00
2023-01-11T23:28:57.283Z,4.00
2023-01-11T23:31:25.845Z,3.90
2023-01-11T23:33:54.886Z,3.90
2023-01-11T23:36:24.258Z,3.80
2023-01-11T23:38:51.325Z,3.80
2023-01-11T23:41:38.738Z,3.80
2023-01-11T23:44:11.107Z,3.80
2023-01-11T23:46:58.073Z,3.80
2023-01-11T23:49:25.618Z,3.70
2023-01-11T23:51:53.138Z,3.70
2023-01-11T23:54:20.063Z,3.70
2023-01-11T23:56:46.992Z,3.70
2023-01-11T23:59:13.814Z,3.70
